createdAt,value
2018-07-11T00:00:25.093Z,24.80
2018-07-11T00:02:53.549Z,25.60
2018-07-11T00:05:21.977Z,31.50
2018-07-11T00:07:50.090Z,27.43
2018-07-11T00:10:19.171Z,24.00
2018-07-11T00:12:47.624Z,22.83
2018-07-11T00:15:15.684Z,23.70
2018-07-11T00:17:44.121Z,25.73
2018-07-11T00:20:12.240Z,30.70
2018-07-11T00:22:40.340Z,24.50
2018-07-11T00:25:08.437Z,34.53
2018-07-11T00:27:36.501Z,30.03
2018-07-11T00:30:04.474Z,24.87
2018-07-11T00:32:32.830Z,23.17
2018-07-11T00:35:00.951Z,21.47
2018-07-11T00:37:29.966Z,24.43
2018-07-11T00:39:58.293Z,22.93
2018-07-11T00:42:26.812Z,24.23
2018-07-11T00:44:55.234Z,25.50
2018-07-11T00:47:24.424Z,24.33
2018-07-11T00:49:53.067Z,25.93
2018-07-11T00:52:21.475Z,27.37
2018-07-11T00:54:49.580Z,27.53
2018-07-11T00:57:17.866Z,24.23
2018-07-11T00:59:46.898Z,27.53
2018-07-11T01:02:15.271Z,26.63
2018-07-11T01:04:43.229Z,24.10
2018-07-11T01:07:11.663Z,23.67
2018-07-11T01:09:40.408Z,27.10
2018-07-11T01:12:08.764Z,28.33
2018-07-11T01:14:36.849Z,24.83
2018-07-11T01:17:09.160Z,23.50
2018-07-11T01:19:37.740Z,21.33
2018-07-11T01:22:06.080Z,24.77
2018-07-11T01:24:34.489Z,21.57
2018-07-11T01:29:45.313Z,21.90
2018-07-11T01:32:13.545Z,22.77
2018-07-11T01:34:41.681Z,22.80
2018-07-11T01:37:09.794Z,21.87
2018-07-11T01:39:37.978Z,22.20
2018-07-11T01:42:05.969Z,24.60
2018-07-11T01:44:34.155Z,23.80
2018-07-11T01:47:02.178Z,22.67
2018-07-11T01:49:31.457Z,24.17
2018-07-11T01:52:04.876Z,25.73
2018-07-11T01:54:32.888Z,22.63
2018-07-11T01:57:00.924Z,34.57
2018-07-11T01:59:35.389Z,22.30
2018-07-11T02:02:03.917Z,23.13
2018-07-11T02:04:32.927Z,18.73
2018-07-11T02:07:01.436Z,18.97
2018-07-11T02:09:30.521Z,22.20
2018-07-11T02:11:59.198Z,22.80
2018-07-11T02:14:27.820Z,21.93
2018-07-11T02:16:56.362Z,21.70
2018-07-11T02:19:24.815Z,29.63
2018-07-11T02:21:53.178Z,22.37
2018-07-11T02:24:21.674Z,18.63
2018-07-11T02:26:51.414Z,21.03
2018-07-11T02:29:19.568Z,22.53
2018-07-11T02:31:47.773Z,23.27
2018-07-11T02:34:16.095Z,17.10
2018-07-11T02:36:44.434Z,18.40
2018-07-11T02:39:12.544Z,20.67
2018-07-11T02:41:40.808Z,18.70
2018-07-11T02:44:09.071Z,22.57
2018-07-11T02:46:42.541Z,17.40
2018-07-11T02:49:10.702Z,21.10
2018-07-11T02:51:39.763Z,26.00
2018-07-11T02:54:07.921Z,18.70
2018-07-11T02:56:36.024Z,20.43
2018-07-11T02:59:04.070Z,21.83
2018-07-11T03:01:32.472Z,25.17
2018-07-11T03:04:00.488Z,25.10
2018-07-11T03:06:28.672Z,19.87
2018-07-11T03:08:57.338Z,20.10
2018-07-11T03:11:25.512Z,22.63
2018-07-11T03:13:54.700Z,24.23
2018-07-11T03:16:23.679Z,22.23
2018-07-11T03:18:51.966Z,25.53
2018-07-11T03:21:20.246Z,27.27
2018-07-11T03:23:48.468Z,24.77
2018-07-11T03:26:16.493Z,22.63
2018-07-11T03:28:44.581Z,26.60
2018-07-11T03:31:12.704Z,21.87
2018-07-11T03:33:40.977Z,20.67
2018-07-11T03:36:08.973Z,21.10
2018-07-11T03:38:37.373Z,23.10
2018-07-11T03:41:05.344Z,22.13
2018-07-11T03:43:33.507Z,21.03
2018-07-11T03:46:02.013Z,22.63
2018-07-11T03:48:30.371Z,20.70
2018-07-11T03:50:58.661Z,27.40
2018-07-11T03:53:26.896Z,28.87
2018-07-11T03:55:55.672Z,20.73
2018-07-11T03:58:25.121Z,19.93
2018-07-11T04:00:53.903Z,34.50
2018-07-11T04:03:23.499Z,25.87
2018-07-11T04:05:52.190Z,25.30
2018-07-11T04:08:20.311Z,23.50
2018-07-11T04:10:48.585Z,26.90
2018-07-11T04:13:17.493Z,30.07
2018-07-11T04:15:45.817Z,20.40
2018-07-11T04:18:19.417Z,40.50
2018-07-11T04:20:51.333Z,22.87
2018-07-11T04:23:19.382Z,18.97
2018-07-11T04:25:47.973Z,23.47
2018-07-11T04:28:16.138Z,20.60
2018-07-11T04:30:44.351Z,20.67
2018-07-11T04:33:12.966Z,17.60
2018-07-11T04:35:41.178Z,21.90
2018-07-11T04:38:09.256Z,17.63
2018-07-11T04:40:37.576Z,17.90
2018-07-11T04:43:05.789Z,21.07
2018-07-11T04:45:38.546Z,19.27
2018-07-11T04:48:06.769Z,19.70
2018-07-11T04:50:35.927Z,21.57
2018-07-11T04:55:47.014Z,12.83
2018-07-11T04:58:17.987Z,16.00
2018-07-11T05:00:46.329Z,17.53
2018-07-11T05:03:19.135Z,15.23
2018-07-11T05:05:47.366Z,16.90
2018-07-11T05:08:15.479Z,12.27
2018-07-11T05:10:44.941Z,23.17
2018-07-11T05:13:13.266Z,12.23
2018-07-11T05:15:41.436Z,9.63
2018-07-11T05:20:48.741Z,14.50
2018-07-11T05:23:17.024Z,16.03
2018-07-11T05:25:54.067Z,13.10
2018-07-11T05:33:47.602Z,12.07
2018-07-11T05:36:15.912Z,9.43
2018-07-11T05:38:49.434Z,11.13
2018-07-11T05:44:03.630Z,17.40
2018-07-11T05:51:52.708Z,12.10
2018-07-11T05:57:05.363Z,8.00
2018-07-11T05:59:34.286Z,7.60
2018-07-11T06:02:02.966Z,16.10
2018-07-11T06:04:31.250Z,17.53
2018-07-11T06:06:59.842Z,13.17
2018-07-11T06:14:54.127Z,13.47
2018-07-11T06:22:54.739Z,15.17
2018-07-11T06:28:13.031Z,13.57
2018-07-11T06:33:26.925Z,5.90
2018-07-11T06:36:00.144Z,6.90
2018-07-11T06:38:30.149Z,6.20
2018-07-11T06:40:58.539Z,9.73
2018-07-11T06:46:22.699Z,8.40
2018-07-11T06:48:54.162Z,8.10
2018-07-11T06:51:23.160Z,7.20
2018-07-11T06:53:53.900Z,7.80
2018-07-11T06:56:24.645Z,14.80
2018-07-11T06:59:23.748Z,6.73
2018-07-11T07:01:52.668Z,10.53
2018-07-11T07:10:27.613Z,7.63
2018-07-11T07:15:37.505Z,5.03
2018-07-11T07:18:05.874Z,10.10
2018-07-11T07:23:16.189Z,9.30
2018-07-11T07:25:45.730Z,15.77
2018-07-11T07:28:22.367Z,8.40
2018-07-11T07:33:27.011Z,11.37
2018-07-11T07:41:46.748Z,8.80
2018-07-11T07:44:15.770Z,10.33
2018-07-11T07:46:49.786Z,25.70
2018-07-11T07:54:52.716Z,7.10
2018-07-11T07:57:21.366Z,11.07
2018-07-11T07:59:53.799Z,9.60
2018-07-11T08:02:34.908Z,9.47
2018-07-11T08:05:04.862Z,9.03
2018-07-11T08:10:22.515Z,7.93
2018-07-11T08:15:32.340Z,8.00
2018-07-11T08:18:00.715Z,7.43
2018-07-11T08:23:32.868Z,9.00
2018-07-11T08:26:07.036Z,11.73
2018-07-11T08:31:38.726Z,16.10
2018-07-11T08:39:58.618Z,8.17
2018-07-11T08:49:51.941Z,23.77
2018-07-11T08:54:32.943Z,6.53
2018-07-11T09:01:22.945Z,8.23
2018-07-11T09:06:49.620Z,5.93
2018-07-11T09:11:28.605Z,12.87
2018-07-11T09:19:04.151Z,8.80
2018-07-11T09:21:43.292Z,10.93
2018-07-11T09:24:18.798Z,8.80
2018-07-11T09:29:39.913Z,13.30
2018-07-11T09:32:21.245Z,11.03
2018-07-11T09:34:59.884Z,13.23
2018-07-11T09:37:28.754Z,5.53
2018-07-11T09:48:51.393Z,5.30
2018-07-11T09:54:24.741Z,3.70
2018-07-11T09:56:56.490Z,5.90
2018-07-11T09:59:53.311Z,7.90
2018-07-11T10:17:17.870Z,6.10
2018-07-11T10:19:55.014Z,4.40
2018-07-11T10:25:15.864Z,6.03
2018-07-11T10:30:27.725Z,11.70
2018-07-11T10:36:20.053Z,17.10
2018-07-11T10:53:42.685Z,6.33
2018-07-11T10:58:57.720Z,7.83
2018-07-11T11:04:26.434Z,5.33
2018-07-11T11:09:54.087Z,6.87
2018-07-11T11:21:24.762Z,16.03
2018-07-11T12:21:18.602Z,11.50
2018-07-11T12:50:03.760Z,23.77
2018-07-11T12:55:43.744Z,10.53
2018-07-11T12:58:28.715Z,12.13
2018-07-11T13:03:52.836Z,18.43
2018-07-11T13:06:25.379Z,12.67
2018-07-11T13:11:37.071Z,13.17
2018-07-11T13:20:24.412Z,23.17
2018-07-11T13:22:53.967Z,97.30
2018-07-11T13:25:23.186Z,31.80
2018-07-11T13:28:04.027Z,12.63
2018-07-11T13:33:28.537Z,12.47
2018-07-11T13:48:09.855Z,9.83
2018-07-11T13:50:51.490Z,10.80
2018-07-11T13:53:28.513Z,24.20
2018-07-11T14:13:14.979Z,21.83
2018-07-11T14:24:32.178Z,16.03
2018-07-11T14:35:57.283Z,10.40
2018-07-11T14:44:35.282Z,10.67
2018-07-11T14:47:22.897Z,9.70
2018-07-11T14:56:08.545Z,11.00
2018-07-11T15:07:54.378Z,11.50
2018-07-11T15:13:06.790Z,14.80
2018-07-11T15:15:45.267Z,17.20
2018-07-11T15:35:48.076Z,10.90
2018-07-11T15:42:04.110Z,10.37
2018-07-11T15:50:40.215Z,15.40
2018-07-11T15:56:31.228Z,9.57
2018-07-11T15:59:04.866Z,13.63
2018-07-11T16:21:49.578Z,11.10
2018-07-11T16:44:39.009Z,15.07
2018-07-11T16:47:11.280Z,10.77
2018-07-11T16:49:44.273Z,15.43
2018-07-11T16:54:53.323Z,16.63
2018-07-11T16:57:41.441Z,13.33
2018-07-11T17:00:15.165Z,8.70
2018-07-11T17:06:23.529Z,9.93
2018-07-11T17:08:56.762Z,9.70
2018-07-11T17:14:56.561Z,17.13
2018-07-11T17:23:35.745Z,13.47
2018-07-11T17:29:06.490Z,11.17
2018-07-11T17:34:55.386Z,10.47
2018-07-11T17:43:35.842Z,13.20
2018-07-11T17:46:09.996Z,12.63
2018-07-11T17:57:16.531Z,9.63
2018-07-11T18:05:19.233Z,8.20
2018-07-11T18:07:56.685Z,7.30
2018-07-11T18:30:20.091Z,11.57
2018-07-11T18:35:35.886Z,11.17
2018-07-11T18:38:20.088Z,11.30
2018-07-11T18:52:22.748Z,8.30
2018-07-11T19:09:51.342Z,14.07
2018-07-11T19:15:14.543Z,11.67
2018-07-11T19:23:21.101Z,8.77
2018-07-11T19:25:57.336Z,7.77
2018-07-11T19:28:33.276Z,8.10
2018-07-11T19:33:51.682Z,9.87
2018-07-11T19:44:52.487Z,9.93
2018-07-11T19:51:01.321Z,9.13
2018-07-11T19:56:52.354Z,7.33
2018-07-11T19:59:24.930Z,5.80
2018-07-11T20:01:53.326Z,5.43
2018-07-11T20:04:30.670Z,10.70
2018-07-11T20:06:59.361Z,7.13
2018-07-11T20:09:27.543Z,6.47
2018-07-11T20:11:55.919Z,8.07
2018-07-11T20:14:24.531Z,7.60
2018-07-11T20:16:53.348Z,7.70
2018-07-11T20:19:23.827Z,8.63
2018-07-11T20:22:04.082Z,7.27
2018-07-11T20:27:23.779Z,9.33
2018-07-11T20:35:27.041Z,15.10
2018-07-11T20:37:55.547Z,21.80
2018-07-11T20:43:07.235Z,12.03
2018-07-11T20:45:36.125Z,6.87
2018-07-11T20:48:04.707Z,10.93
2018-07-11T20:50:32.773Z,6.80
2018-07-11T20:55:52.870Z,17.60
2018-07-11T21:01:08.593Z,12.67
2018-07-11T21:04:52.892Z,5.80
2018-07-11T21:07:27.264Z,8.63
2018-07-11T21:10:00.995Z,9.63
2018-07-11T21:12:30.933Z,4.47
2018-07-11T21:15:20.428Z,6.67
2018-07-11T21:18:03.798Z,6.00
2018-07-11T21:20:33.022Z,5.93
2018-07-11T21:23:01.455Z,16.20
2018-07-11T21:25:29.787Z,8.80
2018-07-11T21:27:58.960Z,7.50
2018-07-11T21:30:29.362Z,6.37
2018-07-11T21:32:58.325Z,6.57
2018-07-11T21:35:33.607Z,10.53
2018-07-11T21:38:03.155Z,7.40
2018-07-11T21:40:40.519Z,8.77
2018-07-11T21:43:12.721Z,5.67
2018-07-11T21:45:40.705Z,8.07
2018-07-11T21:48:09.540Z,9.70
2018-07-11T21:50:37.690Z,7.60
2018-07-11T21:53:05.674Z,8.27
2018-07-11T21:55:38.506Z,12.03
2018-07-11T21:58:06.505Z,6.63
2018-07-11T22:00:38.677Z,7.30
2018-07-11T22:03:07.989Z,9.17
2018-07-11T22:05:36.699Z,8.40
2018-07-11T22:08:07.349Z,7.80
2018-07-11T22:10:36.192Z,12.73
2018-07-11T22:13:04.849Z,7.43
2018-07-11T22:15:32.973Z,9.20
2018-07-11T22:18:08.091Z,11.07
2018-07-11T22:20:35.502Z,9.10
2018-07-11T22:23:03.804Z,9.03
2018-07-11T22:25:31.882Z,8.10
2018-07-11T22:28:04.750Z,8.73
2018-07-11T22:30:32.190Z,11.17
2018-07-11T22:33:00.042Z,12.13
2018-07-11T22:35:27.703Z,8.30
2018-07-11T22:37:55.184Z,7.53
2018-07-11T22:40:23.256Z,8.60
2018-07-11T22:42:51.061Z,10.37
2018-07-11T22:45:18.648Z,7.03
2018-07-11T22:47:46.498Z,7.87
2018-07-11T22:50:13.975Z,7.20
2018-07-11T22:52:41.383Z,9.43
2018-07-11T22:55:09.037Z,12.00
2018-07-11T22:57:36.403Z,7.80
2018-07-11T23:00:03.774Z,6.60
2018-07-11T23:02:31.178Z,9.20
2018-07-11T23:04:58.678Z,9.60
2018-07-11T23:07:26.946Z,18.00
2018-07-11T23:09:54.583Z,12.70
2018-07-11T23:12:22.756Z,7.80
2018-07-11T23:14:50.267Z,10.23
2018-07-11T23:17:17.988Z,7.23
2018-07-11T23:19:45.492Z,11.27
2018-07-11T23:22:12.974Z,10.63
2018-07-11T23:24:40.599Z,9.37
2018-07-11T23:27:12.660Z,13.83
2018-07-11T23:29:40.097Z,12.43
2018-07-11T23:32:07.500Z,7.70
2018-07-11T23:34:34.877Z,11.87
2018-07-11T23:37:05.033Z,10.00
2018-07-11T23:39:32.394Z,9.00
2018-07-11T23:42:00.269Z,10.73
2018-07-11T23:44:29.897Z,10.03
2018-07-11T23:46:57.359Z,8.67
2018-07-11T23:49:24.901Z,11.20
2018-07-11T23:51:52.532Z,15.63
2018-07-11T23:54:19.933Z,11.00
2018-07-11T23:56:51.836Z,13.63
2018-07-11T23:59:19.218Z,10.80
